Aeroporto :
LOGIN :

Iscrizione | Disclaimer

   EN    FR    IT 

 










Sommario :    VFR   VFR Marginale   IFR   IFR Intensivo   IFR Molto Intensivo
Visibilità : 
Base nubi : 
>= 8 km
>= 3000ft
5 / 8 km
1000 / 3000 ft
1500m / 5 km
500 / 1000 ft
800 / 1500m
200 / 500 ft
< 800m
< 200 ft
Simboli :   Temporali  Nebbia  Neve Forte  Precipitazioni Forti  Vento > 20 kt
SIGMETs :   Varie  Temporali  Ghiacco  Turbolenza  Onda orograficha  Ceneri Vulcaniche






- Altitudine del aeroporto : 306 ft
- Codice IATA : EMA


EGNX - Nottingham East Midlands

ULTIMO METAR :
  • 291020Z 25014KT CAVOK 06/02 Q1006

METARs OBSOLETI :
  • 290950Z 25014KT CAVOK 05/01 Q1006
  • 290920Z 25014KT CAVOK 04/01 Q1005
  • 290850Z 23011KT CAVOK 03/00 Q1005
  • 290820Z 24012KT CAVOK 03/00 Q1005
  • 290750Z 23012KT CAVOK 02/M00 Q1004

TAF TAF EGNX
Valido dal 29 a 06 ore il 30 a 06 ore UTC


290502Z 2906/3006 25014KT 9999 FEW035
PROB30
TEMPO 2916/2920 24017G27KT 8000 -RA
BECMG 3000/3003 19010KT
ATIS : +44 1332 852 852 (ext 3201)



MetMap, La meteo Aeronautica in un colpo d'occhio ! - Copyright ORBIFLY Dicembre 2007 - Disclaimer

ORBIFLY MET'MAP TEAM :

Programmazione e sviluppo : Alexandra Zaïnal
Concezione : Baudouin d'Aumeries
Aiuto per la programmazione : Marc-Olivier Méhu
Supporto tecnico e logistico : Manuel Goepfert
Aiuto per la traduzione : Arnaldo La Scala

Contatto : metmap@orbifly.com




FONTI E CREDITI :

   NOAA